sensor_id;sensor_type;location;lat;lon;timestamp;temperature;humidity
75489;HTU21D;64069;46.396;48.102;2023-03-02T00:02:03;1.04;83.23
75489;HTU21D;64069;46.396;48.102;2023-03-02T00:07:04;0.95;83.29
75489;HTU21D;64069;46.396;48.102;2023-03-02T00:09:32;0.91;83.32
75489;HTU21D;64069;46.396;48.102;2023-03-02T00:11:58;0.86;83.41
75489;HTU21D;64069;46.396;48.102;2023-03-02T00:14:24;0.79;83.59
75489;HTU21D;64069;46.396;48.102;2023-03-02T00:16:50;0.76;83.68
75489;HTU21D;64069;46.396;48.102;2023-03-02T00:19:16;0.74;83.76
75489;HTU21D;64069;46.396;48.102;2023-03-02T00:21:42;0.72;83.84
75489;HTU21D;64069;46.396;48.102;2023-03-02T00:24:08;0.67;83.81
75489;HTU21D;64069;46.396;48.102;2023-03-02T00:26:35;0.63;83.84
75489;HTU21D;64069;46.396;48.102;2023-03-02T00:29:02;0.59;83.93
75489;HTU21D;64069;46.396;48.102;2023-03-02T00:31:28;0.57;84.07
75489;HTU21D;64069;46.396;48.102;2023-03-02T00:33:54;0.53;84.07
75489;HTU21D;64069;46.396;48.102;2023-03-02T00:36:21;0.51;84.10
75489;HTU21D;64069;46.396;48.102;2023-03-02T00:38:48;0.47;84.19
75489;HTU21D;64069;46.396;48.102;2023-03-02T00:41:14;0.44;84.22
75489;HTU21D;64069;46.396;48.102;2023-03-02T00:43:41;0.40;84.19
75489;HTU21D;64069;46.396;48.102;2023-03-02T00:46:09;0.36;84.25
75489;HTU21D;64069;46.396;48.102;2023-03-02T00:48:35;0.32;84.36
75489;HTU21D;64069;46.396;48.102;2023-03-02T00:51:01;0.32;84.38
75489;HTU21D;64069;46.396;48.102;2023-03-02T00:53:27;0.32;84.47
75489;HTU21D;64069;46.396;48.102;2023-03-02T00:55:53;0.30;84.45
75489;HTU21D;64069;46.396;48.102;2023-03-02T00:58:21;0.24;84.46
75489;HTU21D;64069;46.396;48.102;2023-03-02T01:00:47;0.17;84.47
75489;HTU21D;64069;46.396;48.102;2023-03-02T01:03:14;0.12;84.71
75489;HTU21D;64069;46.396;48.102;2023-03-02T01:05:40;0.06;84.88
75489;HTU21D;64069;46.396;48.102;2023-03-02T01:08:06;0.01;84.88
75489;HTU21D;64069;46.396;48.102;2023-03-02T01:10:34;-0.03;85.05
75489;HTU21D;64069;46.396;48.102;2023-03-02T01:13:00;-0.06;85.11
75489;HTU21D;64069;46.396;48.102;2023-03-02T01:15:26;-0.08;85.30
75489;HTU21D;64069;46.396;48.102;2023-03-02T01:17:52;-0.07;85.30
75489;HTU21D;64069;46.396;48.102;2023-03-02T01:20:18;-0.10;85.22
75489;HTU21D;64069;46.396;48.102;2023-03-02T01:22:44;-0.13;85.28
75489;HTU21D;64069;46.396;48.102;2023-03-02T01:25:10;-0.14;85.38
75489;HTU21D;64069;46.396;48.102;2023-03-02T01:27:37;-0.16;85.32
75489;HTU21D;64069;46.396;48.102;2023-03-02T01:30:04;-0.19;85.42
75489;HTU21D;64069;46.396;48.102;2023-03-02T01:32:30;-0.21;85.39
75489;HTU21D;64069;46.396;48.102;2023-03-02T01:34:56;-0.23;85.43
75489;HTU21D;64069;46.396;48.102;2023-03-02T01:37:22;-0.20;85.62
75489;HTU21D;64069;46.396;48.102;2023-03-02T01:39:49;-0.15;85.48
75489;HTU21D;64069;46.396;48.102;2023-03-02T01:42:15;-0.13;85.37
75489;HTU21D;64069;46.396;48.102;2023-03-02T01:44:50;-0.14;85.32
75489;HTU21D;64069;46.396;48.102;2023-03-02T01:47:26;-0.17;85.39
75489;HTU21D;64069;46.396;48.102;2023-03-02T01:50:20;-0.23;85.48
75489;HTU21D;64069;46.396;48.102;2023-03-02T01:52:52;-0.29;85.52
75489;HTU21D;64069;46.396;48.102;2023-03-02T01:55:23;-0.35;85.75
75489;HTU21D;64069;46.396;48.102;2023-03-02T01:57:52;-0.38;85.83
75489;HTU21D;64069;46.396;48.102;2023-03-02T02:00:34;-0.43;85.73
75489;HTU21D;64069;46.396;48.102;2023-03-02T02:03:05;-0.50;85.76
75489;HTU21D;64069;46.396;48.102;2023-03-02T02:05:38;-0.52;85.83
75489;HTU21D;64069;46.396;48.102;2023-03-02T02:08:04;-0.56;85.73
75489;HTU21D;64069;46.396;48.102;2023-03-02T02:10:32;-0.56;85.82
75489;HTU21D;64069;46.396;48.102;2023-03-02T02:12:58;-0.58;85.74
75489;HTU21D;64069;46.396;48.102;2023-03-02T02:15:25;-0.60;85.58
75489;HTU21D;64069;46.396;48.102;2023-03-02T02:17:51;-0.64;85.48
75489;HTU21D;64069;46.396;48.102;2023-03-02T02:20:44;-0.67;85.42
75489;HTU21D;64069;46.396;48.102;2023-03-02T02:28:26;-0.81;85.29
75489;HTU21D;64069;46.396;48.102;2023-03-02T02:33:33;-0.88;85.26
75489;HTU21D;64069;46.396;48.102;2023-03-02T02:36:13;-0.94;85.26
75489;HTU21D;64069;46.396;48.102;2023-03-02T02:38:40;-0.97;85.29
75489;HTU21D;64069;46.396;48.102;2023-03-02T02:41:11;-1.02;85.29
75489;HTU21D;64069;46.396;48.102;2023-03-02T02:43:40;-1.09;85.37
75489;HTU21D;64069;46.396;48.102;2023-03-02T02:46:05;-1.14;85.35
75489;HTU21D;64069;46.396;48.102;2023-03-02T02:48:32;-1.19;85.42
75489;HTU21D;64069;46.396;48.102;2023-03-02T02:50:59;-1.21;85.59
75489;HTU21D;64069;46.396;48.102;2023-03-02T02:53:39;-1.25;85.55
75489;HTU21D;64069;46.396;48.102;2023-03-02T02:56:08;-1.28;85.52
75489;HTU21D;64069;46.396;48.102;2023-03-02T02:58:51;-1.33;85.50
75489;HTU21D;64069;46.396;48.102;2023-03-02T03:01:21;-1.38;85.61
75489;HTU21D;64069;46.396;48.102;2023-03-02T03:04:03;-1.41;85.57
75489;HTU21D;64069;46.396;48.102;2023-03-02T03:06:32;-1.44;85.66
75489;HTU21D;64069;46.396;48.102;2023-03-02T03:09:06;-1.47;85.65
75489;HTU21D;64069;46.396;48.102;2023-03-02T03:11:42;-1.48;85.58
75489;HTU21D;64069;46.396;48.102;2023-03-02T03:14:12;-1.50;85.63
75489;HTU21D;64069;46.396;48.102;2023-03-02T03:16:40;-1.54;85.59
75489;HTU21D;64069;46.396;48.102;2023-03-02T03:21:43;-1.60;85.56
75489;HTU21D;64069;46.396;48.102;2023-03-02T03:24:10;-1.63;85.59
75489;HTU21D;64069;46.396;48.102;2023-03-02T03:26:36;-1.64;85.65
75489;HTU21D;64069;46.396;48.102;2023-03-02T03:29:02;-1.65;85.60
75489;HTU21D;64069;46.396;48.102;2023-03-02T03:31:29;-1.65;85.59
75489;HTU21D;64069;46.396;48.102;2023-03-02T03:33:56;-1.67;85.49
75489;HTU21D;64069;46.396;48.102;2023-03-02T03:36:28;-1.67;85.50
75489;HTU21D;64069;46.396;48.102;2023-03-02T03:38:55;-1.65;85.49
75489;HTU21D;64069;46.396;48.102;2023-03-02T03:41:21;-1.69;85.45
75489;HTU21D;64069;46.396;48.102;2023-03-02T03:43:48;-1.71;85.42
75489;HTU21D;64069;46.396;48.102;2023-03-02T03:46:15;-1.71;85.47
75489;HTU21D;64069;46.396;48.102;2023-03-02T03:48:44;-1.73;85.45
75489;HTU21D;64069;46.396;48.102;2023-03-02T03:51:10;-1.73;85.45
75489;HTU21D;64069;46.396;48.102;2023-03-02T03:53:36;-1.72;85.45
75489;HTU21D;64069;46.396;48.102;2023-03-02T03:56:04;-1.68;85.38
75489;HTU21D;64069;46.396;48.102;2023-03-02T03:58:30;-1.63;85.29
75489;HTU21D;64069;46.396;48.102;2023-03-02T04:00:57;-1.60;85.26
75489;HTU21D;64069;46.396;48.102;2023-03-02T04:03:24;-1.58;85.19
75489;HTU21D;64069;46.396;48.102;2023-03-02T04:05:51;-1.55;85.16
75489;HTU21D;64069;46.396;48.102;2023-03-02T04:08:18;-1.48;85.11
75489;HTU21D;64069;46.396;48.102;2023-03-02T04:10:44;-1.41;85.03
75489;HTU21D;64069;46.396;48.102;2023-03-02T04:13:10;-1.39;84.93
75489;HTU21D;64069;46.396;48.102;2023-03-02T04:15:38;-1.34;84.85
75489;HTU21D;64069;46.396;48.102;2023-03-02T04:18:04;-1.27;84.81
75489;HTU21D;64069;46.396;48.102;2023-03-02T04:20:32;-1.14;84.57
75489;HTU21D;64069;46.396;48.102;2023-03-02T04:22:58;-1.09;84.25
75489;HTU21D;64069;46.396;48.102;2023-03-02T04:25:25;-1.12;84.03
75489;HTU21D;64069;46.396;48.102;2023-03-02T04:27:57;-1.18;83.97
75489;HTU21D;64069;46.396;48.102;2023-03-02T04:30:27;-1.19;84.05
75489;HTU21D;64069;46.396;48.102;2023-03-02T04:32:53;-1.14;84.07
75489;HTU21D;64069;46.396;48.102;2023-03-02T04:35:23;-1.05;84.02
75489;HTU21D;64069;46.396;48.102;2023-03-02T04:37:50;-0.84;83.94
75489;HTU21D;64069;46.396;48.102;2023-03-02T04:40:17;-0.61;83.47
75489;HTU21D;64069;46.396;48.102;2023-03-02T04:42:43;-0.59;83.03
75489;HTU21D;64069;46.396;48.102;2023-03-02T04:45:10;-0.68;82.99
75489;HTU21D;64069;46.396;48.102;2023-03-02T04:47:36;-0.53;83.32
75489;HTU21D;64069;46.396;48.102;2023-03-02T04:50:02;-0.41;83.09
75489;HTU21D;64069;46.396;48.102;2023-03-02T04:52:28;-0.43;83.08
75489;HTU21D;64069;46.396;48.102;2023-03-02T04:54:54;-0.37;83.32
75489;HTU21D;64069;46.396;48.102;2023-03-02T04:57:20;-0.21;83.22
75489;HTU21D;64069;46.396;48.102;2023-03-02T04:59:46;-0.21;83.01
75489;HTU21D;64069;46.396;48.102;2023-03-02T05:02:12;-0.28;82.97
75489;HTU21D;64069;46.396;48.102;2023-03-02T05:04:38;-0.32;83.23
75489;HTU21D;64069;46.396;48.102;2023-03-02T05:07:05;-0.14;83.50
75489;HTU21D;64069;46.396;48.102;2023-03-02T05:09:30;0.32;83.29
75489;HTU21D;64069;46.396;48.102;2023-03-02T05:11:59;0.77;82.52
75489;HTU21D;64069;46.396;48.102;2023-03-02T05:14:25;0.86;81.40
75489;HTU21D;64069;46.396;48.102;2023-03-02T05:16:51;0.84;81.19
75489;HTU21D;64069;46.396;48.102;2023-03-02T05:19:18;1.22;81.49
75489;HTU21D;64069;46.396;48.102;2023-03-02T05:21:44;1.54;80.77
75489;HTU21D;64069;46.396;48.102;2023-03-02T05:24:11;1.66;80.56
75489;HTU21D;64069;46.396;48.102;2023-03-02T05:26:37;1.73;80.26
75489;HTU21D;64069;46.396;48.102;2023-03-02T05:29:04;1.58;80.20
75489;HTU21D;64069;46.396;48.102;2023-03-02T05:31:36;1.49;80.88
75489;HTU21D;64069;46.396;48.102;2023-03-02T05:34:05;1.68;80.99
75489;HTU21D;64069;46.396;48.102;2023-03-02T05:36:31;1.82;80.88
75489;HTU21D;64069;46.396;48.102;2023-03-02T05:38:57;1.98;80.58
75489;HTU21D;64069;46.396;48.102;2023-03-02T05:41:23;2.00;80.47
75489;HTU21D;64069;46.396;48.102;2023-03-02T05:43:50;2.17;80.36
75489;HTU21D;64069;46.396;48.102;2023-03-02T05:46:16;2.29;79.77
75489;HTU21D;64069;46.396;48.102;2023-03-02T05:48:42;2.27;79.85
75489;HTU21D;64069;46.396;48.102;2023-03-02T05:51:08;2.27;79.74
75489;HTU21D;64069;46.396;48.102;2023-03-02T05:53:34;2.14;79.38
75489;HTU21D;64069;46.396;48.102;2023-03-02T05:56:00;1.98;79.33
75489;HTU21D;64069;46.396;48.102;2023-03-02T05:58:26;2.11;79.66
75489;HTU21D;64069;46.396;48.102;2023-03-02T06:00:52;2.47;79.33
75489;HTU21D;64069;46.396;48.102;2023-03-02T06:03:18;2.89;78.60
75489;HTU21D;64069;46.396;48.102;2023-03-02T06:05:44;3.16;78.18
75489;HTU21D;64069;46.396;48.102;2023-03-02T06:08:19;3.24;77.79
75489;HTU21D;64069;46.396;48.102;2023-03-02T06:10:54;3.12;77.97
75489;HTU21D;64069;46.396;48.102;2023-03-02T06:13:20;2.84;77.33
75489;HTU21D;64069;46.396;48.102;2023-03-02T06:15:46;2.56;77.64
75489;HTU21D;64069;46.396;48.102;2023-03-02T06:18:12;2.38;77.60
75489;HTU21D;64069;46.396;48.102;2023-03-02T06:20:39;2.22;77.26
75489;HTU21D;64069;46.396;48.102;2023-03-02T06:23:05;2.16;77.32
75489;HTU21D;64069;46.396;48.102;2023-03-02T06:25:31;2.15;77.05
75489;HTU21D;64069;46.396;48.102;2023-03-02T06:27:57;2.13;76.64
75489;HTU21D;64069;46.396;48.102;2023-03-02T06:30:24;2.02;76.33
75489;HTU21D;64069;46.396;48.102;2023-03-02T06:32:50;1.97;76.40
75489;HTU21D;64069;46.396;48.102;2023-03-02T06:35:16;1.99;76.15
75489;HTU21D;64069;46.396;48.102;2023-03-02T06:37:43;2.11;76.07
75489;HTU21D;64069;46.396;48.102;2023-03-02T06:40:09;2.37;75.95
75489;HTU21D;64069;46.396;48.102;2023-03-02T06:42:37;2.86;75.63
75489;HTU21D;64069;46.396;48.102;2023-03-02T06:45:04;3.45;74.93
75489;HTU21D;64069;46.396;48.102;2023-03-02T06:47:30;3.93;74.20
75489;HTU21D;64069;46.396;48.102;2023-03-02T06:49:58;4.28;73.75
75489;HTU21D;64069;46.396;48.102;2023-03-02T06:52:24;4.52;73.55
75489;HTU21D;64069;46.396;48.102;2023-03-02T06:54:52;4.63;73.40
75489;HTU21D;64069;46.396;48.102;2023-03-02T06:57:18;4.67;72.83
75489;HTU21D;64069;46.396;48.102;2023-03-02T06:59:44;4.52;72.40
75489;HTU21D;64069;46.396;48.102;2023-03-02T07:02:10;4.27;71.93
75489;HTU21D;64069;46.396;48.102;2023-03-02T07:04:36;4.28;72.02
75489;HTU21D;64069;46.396;48.102;2023-03-02T07:07:03;4.31;71.87
75489;HTU21D;64069;46.396;48.102;2023-03-02T07:09:32;4.39;71.51
75489;HTU21D;64069;46.396;48.102;2023-03-02T07:11:58;4.49;71.06
75489;HTU21D;64069;46.396;48.102;2023-03-02T07:14:24;4.69;70.87
75489;HTU21D;64069;46.396;48.102;2023-03-02T07:16:50;5.02;70.61
75489;HTU21D;64069;46.396;48.102;2023-03-02T07:19:16;5.25;70.14
75489;HTU21D;64069;46.396;48.102;2023-03-02T07:21:42;5.49;69.83
75489;HTU21D;64069;46.396;48.102;2023-03-02T07:24:08;5.62;69.29
75489;HTU21D;64069;46.396;48.102;2023-03-02T07:26:34;5.50;68.77
75489;HTU21D;64069;46.396;48.102;2023-03-02T07:29:01;5.28;68.52
75489;HTU21D;64069;46.396;48.102;2023-03-02T07:31:27;5.16;68.67
75489;HTU21D;64069;46.396;48.102;2023-03-02T07:33:54;5.10;68.46
75489;HTU21D;64069;46.396;48.102;2023-03-02T07:36:19;5.01;68.36
75489;HTU21D;64069;46.396;48.102;2023-03-02T07:38:46;4.88;68.30
75489;HTU21D;64069;46.396;48.102;2023-03-02T07:41:13;4.81;68.27
75489;HTU21D;64069;46.396;48.102;2023-03-02T07:43:41;4.78;68.10
75489;HTU21D;64069;46.396;48.102;2023-03-02T07:46:07;4.82;68.04
75489;HTU21D;64069;46.396;48.102;2023-03-02T07:48:33;4.88;67.72
75489;HTU21D;64069;46.396;48.102;2023-03-02T07:51:01;4.93;67.51
75489;HTU21D;64069;46.396;48.102;2023-03-02T07:53:27;5.08;67.43
75489;HTU21D;64069;46.396;48.102;2023-03-02T07:55:53;5.13;66.94
75489;HTU21D;64069;46.396;48.102;2023-03-02T07:58:20;5.19;66.89
75489;HTU21D;64069;46.396;48.102;2023-03-02T08:00:47;5.27;66.59
75489;HTU21D;64069;46.396;48.102;2023-03-02T08:03:13;5.35;66.48
75489;HTU21D;64069;46.396;48.102;2023-03-02T08:05:39;5.46;66.30
75489;HTU21D;64069;46.396;48.102;2023-03-02T08:08:05;5.55;66.14
75489;HTU21D;64069;46.396;48.102;2023-03-02T08:10:33;5.56;65.80
75489;HTU21D;64069;46.396;48.102;2023-03-02T08:12:59;5.64;65.76
75489;HTU21D;64069;46.396;48.102;2023-03-02T08:15:26;5.76;65.48
75489;HTU21D;64069;46.396;48.102;2023-03-02T08:17:53;5.83;65.20
75489;HTU21D;64069;46.396;48.102;2023-03-02T08:20:19;5.89;64.97
75489;HTU21D;64069;46.396;48.102;2023-03-02T08:22:45;5.96;64.55
75489;HTU21D;64069;46.396;48.102;2023-03-02T08:25:12;5.93;64.26
75489;HTU21D;64069;46.396;48.102;2023-03-02T08:27:38;5.93;64.08
75489;HTU21D;64069;46.396;48.102;2023-03-02T08:30:06;5.94;63.89
75489;HTU21D;64069;46.396;48.102;2023-03-02T08:32:33;5.83;63.61
75489;HTU21D;64069;46.396;48.102;2023-03-02T08:34:59;5.85;63.27
75489;HTU21D;64069;46.396;48.102;2023-03-02T08:37:25;5.91;62.78
75489;HTU21D;64069;46.396;48.102;2023-03-02T08:39:52;6.19;62.10
75489;HTU21D;64069;46.396;48.102;2023-03-02T08:42:19;6.04;60.73
75489;HTU21D;64069;46.396;48.102;2023-03-02T08:44:45;5.97;60.86
75489;HTU21D;64069;46.396;48.102;2023-03-02T08:47:11;5.82;60.57
75489;HTU21D;64069;46.396;48.102;2023-03-02T08:49:37;5.90;60.77
75489;HTU21D;64069;46.396;48.102;2023-03-02T08:52:03;6.02;60.79
75489;HTU21D;64069;46.396;48.102;2023-03-02T08:54:30;6.10;60.57
75489;HTU21D;64069;46.396;48.102;2023-03-02T08:56:57;6.16;60.19
75489;HTU21D;64069;46.396;48.102;2023-03-02T08:59:23;6.05;60.03
75489;HTU21D;64069;46.396;48.102;2023-03-02T09:01:49;6.01;60.02
75489;HTU21D;64069;46.396;48.102;2023-03-02T09:04:15;5.95;60.18
75489;HTU21D;64069;46.396;48.102;2023-03-02T09:06:43;5.82;59.96
75489;HTU21D;64069;46.396;48.102;2023-03-02T09:09:11;5.72;60.12
75489;HTU21D;64069;46.396;48.102;2023-03-02T09:11:39;5.78;60.10
75489;HTU21D;64069;46.396;48.102;2023-03-02T09:14:07;5.96;59.75
75489;HTU21D;64069;46.396;48.102;2023-03-02T09:16:33;6.04;59.16
75489;HTU21D;64069;46.396;48.102;2023-03-02T09:18:59;6.22;59.03
75489;HTU21D;64069;46.396;48.102;2023-03-02T09:21:25;6.33;58.80
75489;HTU21D;64069;46.396;48.102;2023-03-02T09:23:53;6.36;58.50
75489;HTU21D;64069;46.396;48.102;2023-03-02T09:26:24;6.49;58.39
75489;HTU21D;64069;46.396;48.102;2023-03-02T09:28:50;6.60;57.45
75489;HTU21D;64069;46.396;48.102;2023-03-02T09:31:16;6.66;56.93
75489;HTU21D;64069;46.396;48.102;2023-03-02T09:33:42;6.84;56.38
75489;HTU21D;64069;46.396;48.102;2023-03-02T09:36:10;7.05;56.06
75489;HTU21D;64069;46.396;48.102;2023-03-02T09:38:37;7.08;55.66
75489;HTU21D;64069;46.396;48.102;2023-03-02T09:41:39;6.76;55.62
75489;HTU21D;64069;46.396;48.102;2023-03-02T09:46:55;6.40;55.98
75489;HTU21D;64069;46.396;48.102;2023-03-02T09:49:35;6.23;56.45
75489;HTU21D;64069;46.396;48.102;2023-03-02T09:54:33;6.06;56.13
75489;HTU21D;64069;46.396;48.102;2023-03-02T09:57:00;5.80;55.03
75489;HTU21D;64069;46.396;48.102;2023-03-02T09:59:54;5.48;55.62
75489;HTU21D;64069;46.396;48.102;2023-03-02T10:05:22;5.70;55.45
75489;HTU21D;64069;46.396;48.102;2023-03-02T10:07:49;5.49;55.28
75489;HTU21D;64069;46.396;48.102;2023-03-02T10:13:20;5.04;55.67
75489;HTU21D;64069;46.396;48.102;2023-03-02T10:16:11;4.94;55.84
75489;HTU21D;64069;46.396;48.102;2023-03-02T10:19:08;5.05;56.19
75489;HTU21D;64069;46.396;48.102;2023-03-02T10:21:38;5.16;56.18
75489;HTU21D;64069;46.396;48.102;2023-03-02T10:26:52;5.19;56.30
75489;HTU21D;64069;46.396;48.102;2023-03-02T10:29:35;5.10;56.61
75489;HTU21D;64069;46.396;48.102;2023-03-02T10:34:41;5.08;56.68
75489;HTU21D;64069;46.396;48.102;2023-03-02T10:37:17;5.03;55.55
75489;HTU21D;64069;46.396;48.102;2023-03-02T10:39:43;4.95;55.68
75489;HTU21D;64069;46.396;48.102;2023-03-02T10:42:19;5.04;55.55
75489;HTU21D;64069;46.396;48.102;2023-03-02T10:44:55;5.18;55.08
75489;HTU21D;64069;46.396;48.102;2023-03-02T10:47:27;5.21;54.48
75489;HTU21D;64069;46.396;48.102;2023-03-02T10:49:55;5.06;54.30
75489;HTU21D;64069;46.396;48.102;2023-03-02T10:52:23;5.01;54.33
75489;HTU21D;64069;46.396;48.102;2023-03-02T10:55:04;4.88;53.52
75489;HTU21D;64069;46.396;48.102;2023-03-02T10:57:37;4.89;54.10
75489;HTU21D;64069;46.396;48.102;2023-03-02T11:03:05;4.96;53.62
75489;HTU21D;64069;46.396;48.102;2023-03-02T11:05:47;4.94;53.81
75489;HTU21D;64069;46.396;48.102;2023-03-02T11:08:22;4.93;53.69
75489;HTU21D;64069;46.396;48.102;2023-03-02T11:10:57;4.93;53.88
75489;HTU21D;64069;46.396;48.102;2023-03-02T11:13:35;4.84;53.48
75489;HTU21D;64069;46.396;48.102;2023-03-02T11:16:05;4.83;53.81
75489;HTU21D;64069;46.396;48.102;2023-03-02T11:18:57;4.90;53.92
75489;HTU21D;64069;46.396;48.102;2023-03-02T11:21:40;4.91;53.49
75489;HTU21D;64069;46.396;48.102;2023-03-02T11:24:25;4.80;53.01
75489;HTU21D;64069;46.396;48.102;2023-03-02T11:27:01;4.63;53.20
75489;HTU21D;64069;46.396;48.102;2023-03-02T11:29:40;4.47;52.71
75489;HTU21D;64069;46.396;48.102;2023-03-02T11:38:01;4.41;53.20
75489;HTU21D;64069;46.396;48.102;2023-03-02T11:40:46;4.35;52.26
75489;HTU21D;64069;46.396;48.102;2023-03-02T11:43:14;4.27;52.40
75489;HTU21D;64069;46.396;48.102;2023-03-02T11:45:53;4.29;52.89
75489;HTU21D;64069;46.396;48.102;2023-03-02T11:51:04;4.52;52.92
75489;HTU21D;64069;46.396;48.102;2023-03-02T11:53:34;4.50;52.88
75489;HTU21D;64069;46.396;48.102;2023-03-02T11:56:07;4.41;52.97
75489;HTU21D;64069;46.396;48.102;2023-03-02T11:58:33;4.34;52.87
75489;HTU21D;64069;46.396;48.102;2023-03-02T12:01:01;4.32;52.98
75489;HTU21D;64069;46.396;48.102;2023-03-02T12:06:06;4.17;52.42
75489;HTU21D;64069;46.396;48.102;2023-03-02T12:08:44;4.03;52.12
75489;HTU21D;64069;46.396;48.102;2023-03-02T12:16:22;3.90;52.51
75489;HTU21D;64069;46.396;48.102;2023-03-02T12:21:59;3.76;51.11
75489;HTU21D;64069;46.396;48.102;2023-03-02T12:24:27;3.69;51.76
75489;HTU21D;64069;46.396;48.102;2023-03-02T12:29:42;3.60;50.84
75489;HTU21D;64069;46.396;48.102;2023-03-02T12:35:06;3.50;51.37
75489;HTU21D;64069;46.396;48.102;2023-03-02T12:38:02;3.53;51.46
75489;HTU21D;64069;46.396;48.102;2023-03-02T12:51:50;3.29;50.12
75489;HTU21D;64069;46.396;48.102;2023-03-02T12:54:20;3.24;50.56
75489;HTU21D;64069;46.396;48.102;2023-03-02T12:56:47;3.18;50.43
75489;HTU21D;64069;46.396;48.102;2023-03-02T12:59:26;3.13;50.14
75489;HTU21D;64069;46.396;48.102;2023-03-02T13:02:10;3.06;49.87
75489;HTU21D;64069;46.396;48.102;2023-03-02T13:04:38;3.04;50.05
75489;HTU21D;64069;46.396;48.102;2023-03-02T13:07:04;3.01;49.40
75489;HTU21D;64069;46.396;48.102;2023-03-02T13:09:31;2.99;49.82
75489;HTU21D;64069;46.396;48.102;2023-03-02T13:11:57;3.00;50.08
75489;HTU21D;64069;46.396;48.102;2023-03-02T13:14:26;2.96;49.61
75489;HTU21D;64069;46.396;48.102;2023-03-02T13:17:00;2.91;49.85
75489;HTU21D;64069;46.396;48.102;2023-03-02T13:19:30;2.86;49.82
75489;HTU21D;64069;46.396;48.102;2023-03-02T13:21:57;2.81;49.63
75489;HTU21D;64069;46.396;48.102;2023-03-02T13:24:45;2.74;49.39
75489;HTU21D;64069;46.396;48.102;2023-03-02T13:27:17;2.70;49.75
75489;HTU21D;64069;46.396;48.102;2023-03-02T13:29:43;2.66;49.50
75489;HTU21D;64069;46.396;48.102;2023-03-02T13:32:24;2.62;49.70
75489;HTU21D;64069;46.396;48.102;2023-03-02T13:34:58;2.58;49.46
75489;HTU21D;64069;46.396;48.102;2023-03-02T13:37:33;2.55;49.66
75489;HTU21D;64069;46.396;48.102;2023-03-02T13:40:07;2.53;49.82
75489;HTU21D;64069;46.396;48.102;2023-03-02T13:42:54;2.47;49.89
75489;HTU21D;64069;46.396;48.102;2023-03-02T13:45:27;2.44;50.14
75489;HTU21D;64069;46.396;48.102;2023-03-02T13:47:55;2.40;50.08
75489;HTU21D;64069;46.396;48.102;2023-03-02T13:50:25;2.36;50.48
75489;HTU21D;64069;46.396;48.102;2023-03-02T13:53:01;2.31;50.40
75489;HTU21D;64069;46.396;48.102;2023-03-02T13:55:34;2.27;50.62
75489;HTU21D;64069;46.396;48.102;2023-03-02T13:58:00;2.24;50.93
75489;HTU21D;64069;46.396;48.102;2023-03-02T14:00:32;2.17;50.85
75489;HTU21D;64069;46.396;48.102;2023-03-02T14:02:59;2.12;51.04
75489;HTU21D;64069;46.396;48.102;2023-03-02T14:05:26;2.05;51.29
75489;HTU21D;64069;46.396;48.102;2023-03-02T14:07:58;1.99;51.62
75489;HTU21D;64069;46.396;48.102;2023-03-02T14:10:25;1.93;51.86
75489;HTU21D;64069;46.396;48.102;2023-03-02T14:13:04;1.85;52.07
75489;HTU21D;64069;46.396;48.102;2023-03-02T14:15:31;1.80;52.35
75489;HTU21D;64069;46.396;48.102;2023-03-02T14:17:58;1.71;52.61
75489;HTU21D;64069;46.396;48.102;2023-03-02T14:20:27;1.64;52.88
75489;HTU21D;64069;46.396;48.102;2023-03-02T14:22:53;1.56;53.17
75489;HTU21D;64069;46.396;48.102;2023-03-02T14:25:19;1.49;53.43
75489;HTU21D;64069;46.396;48.102;2023-03-02T14:27:45;1.41;53.67
75489;HTU21D;64069;46.396;48.102;2023-03-02T14:30:19;1.31;53.91
75489;HTU21D;64069;46.396;48.102;2023-03-02T14:32:46;1.24;54.02
75489;HTU21D;64069;46.396;48.102;2023-03-02T14:35:13;1.16;54.28
75489;HTU21D;64069;46.396;48.102;2023-03-02T14:37:43;1.07;54.55
75489;HTU21D;64069;46.396;48.102;2023-03-02T14:40:23;0.99;54.76
75489;HTU21D;64069;46.396;48.102;2023-03-02T14:42:50;0.99;54.88
75489;HTU21D;64069;46.396;48.102;2023-03-02T14:45:16;0.95;55.00
75489;HTU21D;64069;46.396;48.102;2023-03-02T14:47:43;0.93;55.15
75489;HTU21D;64069;46.396;48.102;2023-03-02T14:50:10;0.94;55.24
75489;HTU21D;64069;46.396;48.102;2023-03-02T14:52:50;0.96;55.25
75489;HTU21D;64069;46.396;48.102;2023-03-02T14:55:24;0.95;55.33
75489;HTU21D;64069;46.396;48.102;2023-03-02T14:58:12;0.92;55.49
75489;HTU21D;64069;46.396;48.102;2023-03-02T15:00:42;0.90;55.57
75489;HTU21D;64069;46.396;48.102;2023-03-02T15:03:17;0.87;55.68
75489;HTU21D;64069;46.396;48.102;2023-03-02T15:05:53;0.84;55.87
75489;HTU21D;64069;46.396;48.102;2023-03-02T15:08:21;0.79;56.00
75489;HTU21D;64069;46.396;48.102;2023-03-02T15:10:48;0.75;56.17
75489;HTU21D;64069;46.396;48.102;2023-03-02T15:13:14;0.67;56.37
75489;HTU21D;64069;46.396;48.102;2023-03-02T15:15:42;0.55;56.64
75489;HTU21D;64069;46.396;48.102;2023-03-02T15:18:10;0.44;56.92
75489;HTU21D;64069;46.396;48.102;2023-03-02T15:20:38;0.33;57.18
75489;HTU21D;64069;46.396;48.102;2023-03-02T15:23:04;0.21;57.45
75489;HTU21D;64069;46.396;48.102;2023-03-02T15:25:30;0.09;57.67
75489;HTU21D;64069;46.396;48.102;2023-03-02T15:27:57;0.01;57.93
75489;HTU21D;64069;46.396;48.102;2023-03-02T15:30:27;-0.06;58.03
75489;HTU21D;64069;46.396;48.102;2023-03-02T15:32:56;-0.11;58.10
75489;HTU21D;64069;46.396;48.102;2023-03-02T15:35:25;-0.19;58.22
75489;HTU21D;64069;46.396;48.102;2023-03-02T15:37:51;-0.27;58.37
75489;HTU21D;64069;46.396;48.102;2023-03-02T15:40:17;-0.35;58.55
75489;HTU21D;64069;46.396;48.102;2023-03-02T15:42:43;-0.38;58.62
75489;HTU21D;64069;46.396;48.102;2023-03-02T15:45:10;-0.45;58.72
75489;HTU21D;64069;46.396;48.102;2023-03-02T15:47:37;-0.52;58.90
75489;HTU21D;64069;46.396;48.102;2023-03-02T15:50:04;-0.58;59.00
75489;HTU21D;64069;46.396;48.102;2023-03-02T15:52:34;-0.67;59.18
75489;HTU21D;64069;46.396;48.102;2023-03-02T15:55:00;-0.74;59.32
75489;HTU21D;64069;46.396;48.102;2023-03-02T15:57:28;-0.85;59.54
75489;HTU21D;64069;46.396;48.102;2023-03-02T15:59:54;-0.93;59.73
75489;HTU21D;64069;46.396;48.102;2023-03-02T16:02:22;-1.01;59.90
75489;HTU21D;64069;46.396;48.102;2023-03-02T16:04:48;-1.11;60.10
75489;HTU21D;64069;46.396;48.102;2023-03-02T16:07:18;-1.20;60.28
75489;HTU21D;64069;46.396;48.102;2023-03-02T16:09:44;-1.29;60.47
75489;HTU21D;64069;46.396;48.102;2023-03-02T16:12:11;-1.41;60.64
75489;HTU21D;64069;46.396;48.102;2023-03-02T16:14:37;-1.52;60.86
75489;HTU21D;64069;46.396;48.102;2023-03-02T16:17:03;-1.61;61.10
75489;HTU21D;64069;46.396;48.102;2023-03-02T16:19:29;-1.69;61.31
75489;HTU21D;64069;46.396;48.102;2023-03-02T16:21:56;-1.75;61.45
75489;HTU21D;64069;46.396;48.102;2023-03-02T16:24:22;-1.83;61.60
75489;HTU21D;64069;46.396;48.102;2023-03-02T16:26:51;-1.86;61.81
75489;HTU21D;64069;46.396;48.102;2023-03-02T16:29:18;-1.89;61.86
75489;HTU21D;64069;46.396;48.102;2023-03-02T16:31:45;-1.95;61.99
75489;HTU21D;64069;46.396;48.102;2023-03-02T16:34:11;-1.99;62.12